ルズィニエ国際空港(プラハ)の過去48時間の天気

ルズィニエ国際空港(プラハ) (Praha / Ruzyne)

現在時刻: 7/2 13:33 CEST (7/2 11:33 UTC) 以下の時間は現地時間です。

過去48時間のMETAR気象情報
時間 風向 風速(m/s) 視程 気温(℃) 湿度(%) 気圧(hPa) 天気現象
2 13:15 西北西 3 10km以上 16 100 1012 弱いしゅう雨 周辺で雷
2 13:04 西 4 10km以上 15 100 1012 弱い雷雨
2 12:50 西北西 9 1200m 18 88 1012 強い雷雨
2 12:46 北西 8 10km以上 20 78 1012 強い雷雨
2 12:39 西 3 10km以上 24 57 1011 周辺で雷 周辺でしゅう雨
2 12:12 南西 5 10km以上 25 57 1011
2 12:00 南西 5 10km以上 23 65 1011
2 11:30 西南西 5 10km以上 24 61 1011
2 11:00 南西 4 10km以上 24 61 1011
2 10:30 南西 4 10km以上 23 65 1012
2 10:00 南西 6 10km以上 22 69 1012
2 09:30 南西 6 10km以上 22 69 1012
2 09:00 南西 5 10km以上 21 73 1012
2 08:30 南南西 4 10km以上 20 73 1011
2 08:00 南西 5 10km以上 18 83 1011
2 07:30 4 10km以上 19 83 1011
2 07:00 2 10km以上 18 88 1011
2 06:30 2 10km以上 18 88 1010
2 06:00 不定 1 10km以上 18 88 1010
2 05:30 西 4 10km以上 18 88 1010
2 05:00 西 4 10km以上 17 94 1010
2 04:30 西 5 10km以上 18 88 1010 弱い雨
2 04:16 西 6 10km以上 18 88 1010 弱い雨
2 04:00 西 6 10km以上 18 88 1010
2 03:30 西 7 10km以上 18 88 1010 弱いしゅう雨
2 03:24 西 7 10km以上 18 88 1010 弱いしゅう雨
2 03:00 西南西 9 10km以上 19 83 1010 弱い雷雨
2 02:52 西南西 10 10km以上 19 83 1010 弱い雷雨
2 02:46 西南西 12 10km以上 20 78 1010
2 02:30 西南西 9 10km以上 21 69 1010
2 02:00 南西 5 10km以上 20 73 1009
2 01:30 南西 6 10km以上 21 69 1009
2 01:00 南西 6 10km以上 20 73 1009
2 00:30 南西 4 10km以上 18 83 1009
2 00:00 南南西 5 10km以上 19 78 1009
1 23:30 南南西 4 10km以上 20 73 1008
1 23:00 南南西 5 10km以上 21 64 1008
1 22:30 南南西 5 10km以上 21 69 1009
1 22:00 南南西 4 10km以上 21 69 1008
1 21:30 南南西 5 10km以上 22 65 1008
1 21:00 南南西 4 10km以上 23 61 1008
1 20:30 南南西 3 10km以上 24 57 1008
1 20:00 南南西 4 10km以上 26 48 1008
1 19:30 南南西 4 10km以上 27 45 1009
1 19:00 南西 5 10km以上 27 45 1009
1 18:30 南西 6 10km以上 27 48 1008
1 18:00 南西 6 10km以上 28 42 1009
1 17:30 南西 5 10km以上 29 40 1009
1 17:00 西南西 5 10km以上 28 42 1009
1 16:30 西南西 4 10km以上 28 42 1009
1 16:00 南西 6 10km以上 28 42 1009
1 15:30 南西 7 10km以上 28 42 1009
1 15:00 南西 7 10km以上 27 45 1010
1 14:30 南南西 7 10km以上 27 48 1010
1 14:00 南南西 6 10km以上 27 48 1010
1 13:30 5 10km以上 27 48 1011
1 13:00 南南西 5 10km以上 26 51 1011
1 12:30 南西 6 10km以上 25 54 1011
1 12:00 南西 6 10km以上 24 57 1011
1 11:30 西南西 7 10km以上 24 57 1011
1 11:00 西南西 7 10km以上 24 54 1011
1 10:30 南西 8 10km以上 23 57 1011
1 10:00 南西 8 10km以上 22 60 1012
1 09:30 南西 5 10km以上 22 60 1012
1 09:00 南南西 4 10km以上 20 64 1012
1 08:30 南南西 4 10km以上 19 68 1012
1 08:00 南南西 4 10km以上 18 73 1012
1 07:30 南南西 4 10km以上 17 72 1012
1 07:00 3 10km以上 16 77 1012
1 06:30 3 10km以上 15 82 1012
1 06:00 3 10km以上 14 82 1012
1 05:30 南南東 3 10km以上 14 77 1012
1 05:00 南南東 2 10km以上 12 88 1012
1 04:30 3 10km以上 13 82 1012
1 04:00 3 10km以上 14 77 1012
1 03:30 3 10km以上 13 82 1012
1 03:00 南南西 3 10km以上 13 82 1012
1 02:30 南南西 3 10km以上 14 77 1012
1 02:00 南南西 2 10km以上 14 77 1012
1 01:30 南西 3 10km以上 14 77 1012
1 01:00 南南西 3 10km以上 14 77 1012
1 00:30 2 10km以上 14 77 1012
1 00:00 西南西 2 10km以上 14 77 1012
30 23:30 西南西 3 10km以上 15 72 1012
30 23:00 西 4 10km以上 15 72 1012
30 22:30 西 4 10km以上 16 68 1012
30 22:00 西南西 5 10km以上 17 68 1011
LKPR 021115Z 29005KT 9999 -SHRA VCTS FEW010 SCT029CB 16/16 Q1012 RMK REG QNH 1008
LKPR 021104Z 28007KT 9999 -TSRA FEW010 SCT029CB 15/15 Q1012 RMK REG QNH 1008
LKPR 021050Z 29018G28KT 260V340 1200 R24/P2000N +TSRA FEW018 BKN029CB 18/16 Q1012 RMK REG QNH 1008
LKPR 021046Z 31015G28KT 260V010 9999 1500NW +TSRA FEW018 SCT029CB BKN040 20/16 Q1012 RMK REG QNH 1008
LKPR 021039Z 26006KT 230V010 9999 VCTS VCSH SCT030CB SCT036 24/15 Q1011 RMK REG QNH 1008
LKPR 021012Z 23009KT 190V300 9999 SCT036 25/16 Q1011 RMK REG QNH 1008
LKPR 021000Z 23009KT 9999 SCT036 23/16 Q1011 TEMPO 3000 TSRA SCT030CB BKN037
LKPR 020930Z 25010KT 9999 SCT036 24/16 Q1011 NOSIG
LKPR 020900Z 23008KT 190V280 9999 SCT033 24/16 Q1011 NOSIG
LKPR 020830Z 23008KT 9999 SCT033 23/16 Q1012 NOSIG
LKPR 020800Z 23011KT 9999 SCT030 22/16 Q1012 NOSIG
LKPR 020730Z 23011KT 9999 FEW018 22/16 Q1012 NOSIG
LKPR 020700Z 22010KT 9999 FEW018 21/16 Q1012 NOSIG
LKPR 020630Z 20008KT 9999 FEW018 20/15 Q1011 NOSIG
LKPR 020600Z 22010KT CAVOK 18/15 Q1011 NOSIG
LKPR 020530Z 17007KT CAVOK 19/16 Q1011 NOSIG
LKPR 020500Z 19004KT CAVOK 18/16 Q1011 NOSIG
LKPR 020430Z 17003KT CAVOK 18/16 Q1010 NOSIG
LKPR 020400Z VRB02KT CAVOK 18/16 Q1010 NOSIG
LKPR 020330Z 28007KT 9999 FEW020 18/16 Q1010 NOSIG
LKPR 020300Z 26007KT 210V290 9999 FEW020 17/16 Q1010 NOSIG
LKPR 020230Z 27010KT 9999 -RA FEW020 18/16 Q1010 NOSIG
LKPR 020216Z 27012KT 9999 -RA NSC 18/16 Q1010 RMK REG QNH 1006
LKPR 020200Z 27011KT CAVOK 18/16 Q1010 NOSIG
LKPR 020130Z 26014KT 9999 -SHRA FEW030CB 18/16 Q1010 NOSIG
LKPR 020124Z 26013KT 9999 -SHRA FEW030CB 18/16 Q1010 RMK REG QNH 1006
LKPR 020100Z 24018KT 9999 -TSRA FEW030CB 19/16 Q1010 NOSIG
LKPR 020052Z 24020KT 9999 -TSRA FEW030CB 19/16 Q1010 RMK REG QNH 1006
LKPR 020046Z 24024KT 9999 TS FEW030CB 20/16 Q1010 RMK REG QNH 1006
LKPR 020030Z 24018KT 9999 FEW030CB 21/15 Q1010 TEMPO 7000 TSRA
LKPR 020000Z 23009KT CAVOK 20/15 Q1009 BECMG 7000 TSRA SCT030CB
LKPR 012330Z 22011KT CAVOK 21/15 Q1009 BECMG 7000 TSRA SCT030CB
LKPR 012300Z 22011KT CAVOK 20/15 Q1009 NOSIG
LKPR 012230Z 22008KT CAVOK 18/15 Q1009 NOSIG
LKPR 012200Z 21009KT CAVOK 19/15 Q1009 NOSIG
LKPR 012130Z 20008KT CAVOK 20/15 Q1008 NOSIG
LKPR 012100Z 20009KT CAVOK 21/14 Q1008 NOSIG
LKPR 012030Z 21009KT CAVOK 21/15 Q1009 NOSIG
LKPR 012000Z 20007KT CAVOK 21/15 Q1008 NOSIG
LKPR 011930Z 21009KT CAVOK 22/15 Q1008 NOSIG
LKPR 011900Z 20008KT CAVOK 23/15 Q1008 NOSIG
LKPR 011830Z 21006KT CAVOK 24/15 Q1008 NOSIG
LKPR 011800Z 20007KT CAVOK 26/14 Q1008 NOSIG
LKPR 011730Z 20008KT CAVOK 27/14 Q1009 NOSIG
LKPR 011700Z 22010KT 180V240 CAVOK 27/14 Q1009 NOSIG
LKPR 011630Z 22011KT CAVOK 27/15 Q1008 NOSIG
LKPR 011600Z 23011KT CAVOK 28/14 Q1009 NOSIG
LKPR 011530Z 22009KT 180V250 CAVOK 29/14 Q1009 NOSIG
LKPR 011500Z 25009KT CAVOK 28/14 Q1009 NOSIG
LKPR 011430Z 25008KT 210V290 CAVOK 28/14 Q1009 NOSIG
LKPR 011400Z 22011KT 140V250 CAVOK 28/14 Q1009 NOSIG
LKPR 011330Z 22013KT CAVOK 28/14 Q1009 NOSIG
LKPR 011300Z 23014KT CAVOK 27/14 Q1010 NOSIG
LKPR 011230Z 20013KT CAVOK 27/15 Q1010 NOSIG
LKPR 011200Z 20011KT 160V230 CAVOK 27/15 Q1010 NOSIG
LKPR 011130Z 19010KT CAVOK 27/15 Q1011 NOSIG
LKPR 011100Z 20009KT 150V250 CAVOK 26/15 Q1011 NOSIG
LKPR 011030Z 22011KT 190V260 9999 FEW045 25/15 Q1011 NOSIG
LKPR 011000Z 22011KT 180V250 9999 FEW042 24/15 Q1011 NOSIG
LKPR 010930Z 24014KT 9999 FEW042 24/15 Q1011 NOSIG
LKPR 010900Z 24014KT 9999 FEW040 24/14 Q1011 NOSIG
LKPR 010830Z 23016KT 9999 FEW037 23/14 Q1011 NOSIG
LKPR 010800Z 22016KT 9999 FEW032 22/14 Q1012 NOSIG
LKPR 010730Z 23010KT 200V260 9999 FEW032 22/14 Q1012 NOSIG
LKPR 010700Z 21008KT 180V240 9999 FEW028 20/13 Q1012 NOSIG
LKPR 010630Z 21007KT CAVOK 19/13 Q1012 NOSIG
LKPR 010600Z 21007KT CAVOK 18/13 Q1012 NOSIG
LKPR 010530Z 21007KT CAVOK 17/12 Q1012 NOSIG
LKPR 010500Z 17005KT 120V210 CAVOK 16/12 Q1012 NOSIG
LKPR 010430Z 17006KT CAVOK 15/12 Q1012 NOSIG
LKPR 010400Z 17006KT CAVOK 14/11 Q1012 NOSIG
LKPR 010330Z 16005KT CAVOK 14/10 Q1012 NOSIG
LKPR 010300Z 15004KT 110V170 CAVOK 12/10 Q1012 NOSIG
LKPR 010230Z 17005KT CAVOK 13/10 Q1012 NOSIG
LKPR 010200Z 19006KT CAVOK 14/10 Q1012 NOSIG
LKPR 010130Z 19005KT CAVOK 13/10 Q1012 NOSIG
LKPR 010100Z 20005KT CAVOK 13/10 Q1012 NOSIG
LKPR 010030Z 20005KT CAVOK 14/10 Q1012 NOSIG
LKPR 010000Z 20004KT CAVOK 14/10 Q1012 NOSIG
LKPR 302330Z 22005KT CAVOK 14/10 Q1012 NOSIG
LKPR 302300Z 21005KT CAVOK 14/10 Q1012 NOSIG
LKPR 302230Z 18004KT CAVOK 14/10 Q1012 NOSIG
LKPR 302200Z 25004KT CAVOK 14/10 Q1012 NOSIG
LKPR 302130Z 25006KT CAVOK 15/10 Q1012 NOSIG
LKPR 302100Z 26007KT CAVOK 15/10 Q1012 NOSIG
LKPR 302030Z 26007KT CAVOK 16/10 Q1012 NOSIG
LKPR 302000Z 25010KT CAVOK 17/11 Q1011 NOSIG